Flight Track Log - Related Links

Times and Time Zones

All times are in EDT time to prevent confusion due to time zone crossing. See the UAL4115 flight status page for this flight to view local times or setup timezone preferences in your user account.

Time Position Orientation Groundspeed Altitude Reporting Facility
EDT Latitude Longitude Course Direction KTS MPH feet Rate Location/Type
Sat 08:37:22 AM 25.6314 -100.6219 73° East 536 617 35,000  Level Houston Center
Sat 08:38:23 AM 25.6853 -100.4294 73° East 544 626 35,000  Level Houston Center
Sat 08:39:24 AM 25.7289 -100.2669 73° East 547 629 35,000  Level Houston Center
Sat 08:40:26 AM 25.7764 -100.1083 72° East 548 631 35,000  Level Houston Center
Sat 08:41:27 AM 25.8667 -99.9867 50° Northeast 523 602 35,000  Level Houston Center
Sat 08:42:28 AM 25.9594 -99.8739 48° Northeast 505 581 35,000  Level Houston Center
Sat 08:43:29 AM 26.0539 -99.7594 47° Northeast 501 577 35,000  Level Houston Center
Sat 08:44:31 AM 26.1506 -99.6472 46° Northeast 503 579 35,000  Level Houston Center
Sat 08:45:32 AM 26.2547 -99.5464 41° Northeast 500 575 35,000  Level Houston Center
Sat 08:46:33 AM 26.3564 -99.4447 42° Northeast 496 571 35,000  Level Houston Center
Sat 08:47:34 AM 26.4783 -99.3275 41° Northeast 486 559 35,000  Level Houston Center
Sat 08:48:36 AM 26.5778 -99.2292 41° Northeast 480 552 35,000  Level Houston Center
Sat 08:49:37 AM 26.6767 -99.1292 42° Northeast 480 552 35,000  Level Houston Center
Sat 08:50:38 AM 26.7764 -99.0308 41° Northeast 479 551 35,000  Level Houston Center
Sat 08:51:39 AM 26.8781 -98.9303 41° Northeast 486 559 35,000  Level Houston Center
Sat 08:52:41 AM 26.9789 -98.8278 42° Northeast 490 564 35,000  Level Houston Center
Sat 08:53:42 AM 27.0781 -98.7278 42° Northeast 487 560 35,000  Level Houston Center
Sat 08:54:43 AM 27.1764 -98.6292 42° Northeast 480 552 35,000  Level Houston Center
Sat 08:55:45 AM 27.2942 -98.5103 42° Northeast 479 551 35,000  Level Houston Center
Sat 08:56:46 AM 27.3931 -98.4111 42° Northeast 480 552 35,000  Level Houston Center
Sat 08:57:47 AM 27.4917 -98.3092 43° Northeast 482 555 35,000  Level Houston Center
Sat 08:58:48 AM 27.5914 -98.2078 42° Northeast 485 558 35,000  Level Houston Center
Sat 08:59:50 AM 27.6908 -98.1056 42° Northeast 486 559 35,000  Level Houston Center
Sat 09:00:51 AM 27.7917 -98.0033 42° Northeast 489 563 35,000  Level Houston Center
Sat 09:01:52 AM 27.8936 -97.9008 42° Northeast 492 566 35,000  Level Houston Center
Sat 09:02:54 AM 28.0147 -97.7764 42° Northeast 493 567 35,000  Level Houston Center
Sat 09:03:55 AM 28.1139 -97.6742 42° Northeast 492 566 35,000  Level Houston Center
Sat 09:04:56 AM 28.2158 -97.5700 42° Northeast 493 567 35,000  Level Houston Center
Sat 09:05:57 AM 28.3169 -97.4644 43° Northeast 494 568 35,000  Level Houston Center
Sat 09:06:59 AM 28.4197 -97.3592 42° Northeast 496 571 35,000 -98 Level Houston Center
Sat 09:08:00 AM 28.5214 -97.2514 43° Northeast 501 577 34,800 -836 Descending Houston Center
Sat 09:09:01 AM 28.6194 -97.1503 42° Northeast 480 552 33,300 -1,820 Descending Houston Center
Sat 09:10:02 AM 28.7150 -97.0497 43° Northeast 470 541 31,100 -2,488 Descending Houston Center
Sat 09:11:04 AM 28.8283 -96.9294 43° Northeast 467 537 28,200 -2,585 Descending Houston Center
Sat 09:12:05 AM 28.9239 -96.8294 42° Northeast 468 539 25,800 -2,410 Descending Houston Center
Sat 09:13:06 AM 29.0189 -96.7289 43° Northeast 469 540 23,300 -2,410 Descending Houston Center
Sat 09:14:07 AM 29.1086 -96.6342 43° Northeast 449 517 20,900 -2,341 Descending Houston Center
Sat 09:15:09 AM 29.1944 -96.5422 43° Northeast 432 497 18,500 -2,098 Descending Houston Center
Sat 09:16:10 AM 29.2783 -96.4525 43° Northeast 419 482 16,600 -2,016 Descending Houston Center
Sat 09:17:11 AM 29.3608 -96.3656 43° Northeast 411 473 14,400 -2,325 Descending Houston Center
Sat 09:17:30 AM 29.3978 -96.3269 42° Northeast 403 464 13,500 -2,557 Descending Houston Center
Sat 09:18:12 AM 29.4556 -96.2633 44° Northeast 395 455 11,800 -2,176 Descending Houston Center
Sat 09:19:01 AM 29.5150 -96.2014 42° Northeast 365 420 10,200 -931 Descending Houston Center
Sat 09:20:08 AM 29.5881 -96.1236 43° Northeast 322 371 10,000 -94 Descending Houston Center
Sat 09:21:09 AM 29.6592 -96.0481 43° Northeast 336 387 10,000 -517 Level Houston Center
Sat 09:22:04 AM 29.7150 -95.9889 43° Northeast 290 334 9,000 -1,190 Descending Houston Center
Sat 09:23:10 AM 29.7803 -95.9214 42° Northeast 275 316 7,600 -1,041 Descending Houston Center
Sat 09:24:05 AM 29.8283 -95.8700 43° Northeast 264 304 6,900 -686 Descending Houston Center
Sat 09:24:20 AM 29.8375 -95.8556 54° Northeast 269 310 6,800 -806 Descending Houston Center
Sat 09:25:12 AM 29.8736 -95.7878 58° Northeast 269 310 6,000 -1,121 Descending Houston Center
Sat 09:26:07 AM 29.9058 -95.7239 60° Northeast 246 283 4,800 -1,183 Descending Houston Center
Sat 09:26:23 AM 29.9131 -95.7131 52° Northeast 256 295 4,600 -1,169 Descending Houston Center
Sat 09:27:24 AM 29.9483 -95.6464 59° Northeast 245 282 3,300 -857 Descending Houston Center
Sat 09:28:15 AM 29.9814 -95.5847 58° Northeast 239 275 3,000 -216 Descending Houston Center
Sat 09:29:15 AM 30.0072 -95.5214 65° Northeast 205 236 2,900 -545 Descending Houston Center
Sat 09:30:16 AM 30.0064 -95.4636 91° East 170 196 1,900 -844 Descending Houston Center
Sat 09:31:23 AM 30.0061 -95.4153 90° East 120 138 1,100 -711 Descending Houston Center
Sat 09:32:31 AM 30.0075 -95.3708 88° East 123 142 300 -706 Descending Houston Center
Sat 09:34:00 AM 29.9833 -95.3333 49° Northeast  Level FlightAware Approximate
Sat 09:41:00 AM 29.9844 -95.3414 49° Northeast  Level Estimated

Login

Don't have an account? Register now (free) for customized features, flight alerts, and more!